Terminal Aerodrome Forecast
Issued by NWS

Home | Current Version | Previous Version | Text Only | Print | Product List | Glossary On
Versions: 1 2 3 4 5 6 7 8 9 10 11 12 13 14 15 16 17 18 19 20 21 22 23 24 25 26 27 28
000
FTUS46 KPDT 272300
TAFDLS
TAF
KDLS 272327Z 2800/2824 30009KT P6SM OVC100
     FM280300 31007KT P6SM SCT040 BKN080
     FM281200 32004KT 5SM BR VCSH SCT005 BKN008 OVC050
     FM281800 VRB04KT P6SM SCT025 BKN050=

USA.gov is the U.S. government's official web portal to all federal, state and local government web resources and services.